KAFF/AFF METAR and TAF weather

Enter ICAO airport designator
Station Type Date Time Source
KAFF METAR 2020/06/01 16:58 UTC NOAA

KAFF 011658Z AUTO 04008KT 10SM CLR 27/04 A3020 RMK AO2 SLP133 T02710035


Station Type Date Time Source
KAFF Decoded METAR 2020/06/01 16:58 UTC NOAA

Air Force Academy, CO, United States (KAFF) 38-58N 104-49W 1999M
Jun 01, 2020 - 12:58 PM EDT / 2020.06.01 1658 UTC
Wind: from the NE (040 degrees) at 9 MPH (8 KT):0
Visibility: 10 mile(s):0
Sky conditions: clear
Temperature: 80.8 F (27.1 C)
Dew Point: 38.3 F (3.5 C)
Relative Humidity: 21%
Pressure (altimeter): 30.2 in. Hg (1022 hPa)
ob: KAFF 011658Z AUTO 04008KT 10SM CLR 27/04 A3020 RMK AO2 SLP133 T02710035
cycle: 17

Station Type Date Time Source
KAFF TAF 2020/06/01 11:06 UTC NOAA

TAF TAF KAFF 011103Z 0111/0217 04009KT 9999 BKN130 BKN220 520005 QNH3015INS WND 240V120 ROTOR CONDS EXIST
TEMPO 0111/0114 25015G25KT
BECMG 0115/0116 34010KT 9999 FEW080 SCT140 510005 QNH3016INS
BECMG 0118/0119 03009KT 9999 VCTS SCT080CB BKN220 QNH3012INS
TEMPO 0120/0123 VRB25G40KT 4800 -TSRA SCT030 BKN070CB BKN120
BECMG 0122/0123 06010KT 9999 VCTS SCT030 BKN060CB BKN120 QNH3018INS
TEMPO 0123/0202 VRB20G35KT 1600 TSRA BKN030CB
BECMG 0203/0204 30012KT 9999 NSW FEW080 SCT140 520005 QNH3020INS
BECMG 0213/0214 36015G25KT 9999 SCT120 520005 QNH3018INS TX29/0121Z TN13/0211Z

Example: see airport list